aerodrome LA FERTE GAUCHER, LFFG, pilots, aviation, flying | pilotspace.eu

LA FERTE GAUCHER

aerodrome LA FERTE GAUCHER

ICAO/ID: LFFG
France
web: Réservé au parachutisme et aux avions de servitude
show on the map

LFPM 270830Z AUTO 20004KT 170V230 9999 OVC006 17/16 Q1015

TAF LFPG 270500Z 2706/2812 25005KT 8000 BKN008 BKN015 PROB40 TEMPO 2706/2708 4000 -DZ BKN005 BECMG 2708/2710 SCT020 BKN035 PROB30 TEMPO 2715/2718 4500 -SHRA SCT040TCU BECMG 2720/2722 17010KT OVC040 TEMPO 2803/2805 3000 -RA BKN008 BECMG 2804/2806 20010KT TX21/2715Z TN15/2706Z

general information

altitude: 538 ft
latitude: 48 45 21 N
longitude: 003 16 36 E

traffic information

RWY: 05/23: 3,609 ft (1,100 m) — surface unknown
report copyright

Online pilot logbook: free for each registered member! http://www.pilotlogbook.eu


last flights

RECENTLY ADDED

The Arrow

The Arrow

15/08/2014 (22x)

lukin

STYLUS X3

STYLUS X3 "Beauty"

01/08/2014 (5x)

Jenki

Poprad

Poprad

31/07/2014 (21x)

Jenki

Let.příručka ALTO

09/03/2014 (14x)

Roman Máca

Let.příručka ALTO

09/03/2014 (4x)

Roman Máca

ULRBK

08/02/2014 (16x)

northwolf

L-13 AC - akrobacie

L-13 AC - akrobacie

05/02/2014 (17x)

Davidlet

inzerát

inzerát

28/09/2013 (22x)

béza48